sensor_id;sensor_type;location;lat;lon;timestamp;P1;durP1;ratioP1;P2;durP2;ratioP2
3726;SDS011;1879;45.876;12.300;2023-05-09T00:01:42;11.50;;;10.40;;
3726;SDS011;1879;45.876;12.300;2023-05-09T00:04:09;11.47;;;10.37;;
3726;SDS011;1879;45.876;12.300;2023-05-09T00:06:36;11.70;;;10.47;;
3726;SDS011;1879;45.876;12.300;2023-05-09T00:09:03;12.33;;;11.03;;
3726;SDS011;1879;45.876;12.300;2023-05-09T00:11:30;11.47;;;10.37;;
3726;SDS011;1879;45.876;12.300;2023-05-09T00:13:58;13.00;;;11.57;;
3726;SDS011;1879;45.876;12.300;2023-05-09T00:16:26;12.60;;;11.33;;
3726;SDS011;1879;45.876;12.300;2023-05-09T00:18:57;12.20;;;11.00;;
3726;SDS011;1879;45.876;12.300;2023-05-09T00:21:24;12.00;;;10.80;;
3726;SDS011;1879;45.876;12.300;2023-05-09T00:23:55;12.60;;;11.27;;
3726;SDS011;1879;45.876;12.300;2023-05-09T00:26:22;12.87;;;11.43;;
3726;SDS011;1879;45.876;12.300;2023-05-09T00:28:49;11.53;;;10.30;;
3726;SDS011;1879;45.876;12.300;2023-05-09T00:31:17;11.77;;;10.53;;
3726;SDS011;1879;45.876;12.300;2023-05-09T00:33:45;11.53;;;10.17;;
3726;SDS011;1879;45.876;12.300;2023-05-09T00:36:12;12.97;;;11.77;;
3726;SDS011;1879;45.876;12.300;2023-05-09T00:38:39;12.30;;;10.80;;
3726;SDS011;1879;45.876;12.300;2023-05-09T00:41:06;11.57;;;10.37;;
3726;SDS011;1879;45.876;12.300;2023-05-09T00:43:33;12.00;;;10.80;;
3726;SDS011;1879;45.876;12.300;2023-05-09T00:46:00;11.80;;;9.70;;
3726;SDS011;1879;45.876;12.300;2023-05-09T00:48:28;11.80;;;10.63;;
3726;SDS011;1879;45.876;12.300;2023-05-09T00:50:55;12.40;;;11.10;;
3726;SDS011;1879;45.876;12.300;2023-05-09T00:53:22;11.80;;;10.60;;
3726;SDS011;1879;45.876;12.300;2023-05-09T00:55:50;10.50;;;9.37;;
3726;SDS011;1879;45.876;12.300;2023-05-09T00:58:19;11.30;;;10.20;;
3726;SDS011;1879;45.876;12.300;2023-05-09T01:00:49;10.43;;;9.43;;
3726;SDS011;1879;45.876;12.300;2023-05-09T01:03:16;11.37;;;10.37;;
3726;SDS011;1879;45.876;12.300;2023-05-09T01:05:46;11.97;;;10.77;;
3726;SDS011;1879;45.876;12.300;2023-05-09T01:08:20;11.10;;;10.00;;
3726;SDS011;1879;45.876;12.300;2023-05-09T01:11:00;13.80;;;10.13;;
3726;SDS011;1879;45.876;12.300;2023-05-09T01:13:33;11.23;;;10.10;;
3726;SDS011;1879;45.876;12.300;2023-05-09T01:16:07;10.70;;;9.60;;
3726;SDS011;1879;45.876;12.300;2023-05-09T01:18:44;11.17;;;10.13;;
3726;SDS011;1879;45.876;12.300;2023-05-09T01:21:18;11.03;;;9.97;;
3726;SDS011;1879;45.876;12.300;2023-05-09T01:24:00;11.73;;;10.73;;
3726;SDS011;1879;45.876;12.300;2023-05-09T01:26:59;10.57;;;9.23;;
3726;SDS011;1879;45.876;12.300;2023-05-09T01:29:47;10.30;;;9.20;;
3726;SDS011;1879;45.876;12.300;2023-05-09T01:32:23;9.63;;;8.60;;
3726;SDS011;1879;45.876;12.300;2023-05-09T01:34:53;11.23;;;10.13;;
3726;SDS011;1879;45.876;12.300;2023-05-09T01:37:23;11.10;;;10.00;;
3726;SDS011;1879;45.876;12.300;2023-05-09T01:39:55;9.90;;;8.97;;
3726;SDS011;1879;45.876;12.300;2023-05-09T01:42:26;11.00;;;9.83;;
3726;SDS011;1879;45.876;12.300;2023-05-09T01:45:01;10.73;;;9.73;;
3726;SDS011;1879;45.876;12.300;2023-05-09T01:47:31;10.47;;;9.47;;
3726;SDS011;1879;45.876;12.300;2023-05-09T01:49:59;10.23;;;9.33;;
3726;SDS011;1879;45.876;12.300;2023-05-09T01:52:26;10.40;;;9.40;;
3726;SDS011;1879;45.876;12.300;2023-05-09T01:54:55;10.50;;;9.50;;
3726;SDS011;1879;45.876;12.300;2023-05-09T01:57:24;11.70;;;9.87;;
3726;SDS011;1879;45.876;12.300;2023-05-09T01:59:53;10.30;;;9.30;;
3726;SDS011;1879;45.876;12.300;2023-05-09T02:02:24;10.20;;;8.97;;
3726;SDS011;1879;45.876;12.300;2023-05-09T02:04:52;9.93;;;8.93;;
3726;SDS011;1879;45.876;12.300;2023-05-09T02:07:21;9.90;;;8.63;;
3726;SDS011;1879;45.876;12.300;2023-05-09T02:09:49;10.97;;;9.87;;
3726;SDS011;1879;45.876;12.300;2023-05-09T02:12:20;13.10;;;8.87;;
3726;SDS011;1879;45.876;12.300;2023-05-09T02:14:48;11.17;;;10.00;;
3726;SDS011;1879;45.876;12.300;2023-05-09T02:17:15;9.70;;;8.70;;
3726;SDS011;1879;45.876;12.300;2023-05-09T02:19:44;11.53;;;10.33;;
3726;SDS011;1879;45.876;12.300;2023-05-09T02:22:11;10.60;;;9.60;;
3726;SDS011;1879;45.876;12.300;2023-05-09T02:24:41;10.30;;;9.30;;
3726;SDS011;1879;45.876;12.300;2023-05-09T02:27:08;10.27;;;9.37;;
3726;SDS011;1879;45.876;12.300;2023-05-09T02:29:38;9.90;;;9.00;;
3726;SDS011;1879;45.876;12.300;2023-05-09T02:32:09;10.70;;;9.60;;
3726;SDS011;1879;45.876;12.300;2023-05-09T02:34:39;9.93;;;8.90;;
3726;SDS011;1879;45.876;12.300;2023-05-09T02:37:08;10.90;;;9.90;;
3726;SDS011;1879;45.876;12.300;2023-05-09T02:39:36;9.03;;;8.13;;
3726;SDS011;1879;45.876;12.300;2023-05-09T02:42:06;10.30;;;9.13;;
3726;SDS011;1879;45.876;12.300;2023-05-09T02:44:34;10.67;;;9.57;;
3726;SDS011;1879;45.876;12.300;2023-05-09T02:47:03;10.27;;;9.30;;
3726;SDS011;1879;45.876;12.300;2023-05-09T02:49:30;9.53;;;8.63;;
3726;SDS011;1879;45.876;12.300;2023-05-09T02:51:57;10.70;;;8.50;;
3726;SDS011;1879;45.876;12.300;2023-05-09T02:54:26;10.70;;;9.60;;
3726;SDS011;1879;45.876;12.300;2023-05-09T02:56:53;9.60;;;8.40;;
3726;SDS011;1879;45.876;12.300;2023-05-09T02:59:20;10.63;;;9.63;;
3726;SDS011;1879;45.876;12.300;2023-05-09T03:01:47;9.67;;;8.73;;
3726;SDS011;1879;45.876;12.300;2023-05-09T03:04:14;9.27;;;8.30;;
3726;SDS011;1879;45.876;12.300;2023-05-09T03:06:42;10.23;;;9.30;;
3726;SDS011;1879;45.876;12.300;2023-05-09T03:09:09;10.77;;;9.77;;
3726;SDS011;1879;45.876;12.300;2023-05-09T03:11:37;9.60;;;8.33;;
3726;SDS011;1879;45.876;12.300;2023-05-09T03:14:04;9.43;;;8.27;;
3726;SDS011;1879;45.876;12.300;2023-05-09T03:16:32;10.33;;;9.20;;
3726;SDS011;1879;45.876;12.300;2023-05-09T03:18:59;11.20;;;10.03;;
3726;SDS011;1879;45.876;12.300;2023-05-09T03:21:26;10.37;;;9.37;;
3726;SDS011;1879;45.876;12.300;2023-05-09T03:23:53;9.73;;;8.77;;
3726;SDS011;1879;45.876;12.300;2023-05-09T03:26:20;9.73;;;8.73;;
3726;SDS011;1879;45.876;12.300;2023-05-09T03:28:48;10.30;;;9.30;;
3726;SDS011;1879;45.876;12.300;2023-05-09T03:31:15;9.77;;;8.90;;
3726;SDS011;1879;45.876;12.300;2023-05-09T03:33:42;9.07;;;8.27;;
3726;SDS011;1879;45.876;12.300;2023-05-09T03:36:09;9.47;;;8.53;;
3726;SDS011;1879;45.876;12.300;2023-05-09T03:38:36;9.07;;;8.17;;
3726;SDS011;1879;45.876;12.300;2023-05-09T03:41:03;10.10;;;8.70;;
3726;SDS011;1879;45.876;12.300;2023-05-09T03:43:30;9.27;;;8.47;;
3726;SDS011;1879;45.876;12.300;2023-05-09T03:45:58;9.57;;;8.67;;
3726;SDS011;1879;45.876;12.300;2023-05-09T03:48:25;9.40;;;8.50;;
3726;SDS011;1879;45.876;12.300;2023-05-09T03:50:52;8.60;;;7.80;;
3726;SDS011;1879;45.876;12.300;2023-05-09T03:53:19;9.67;;;8.77;;
3726;SDS011;1879;45.876;12.300;2023-05-09T03:55:46;9.17;;;8.37;;
3726;SDS011;1879;45.876;12.300;2023-05-09T03:58:13;13.73;;;8.70;;
3726;SDS011;1879;45.876;12.300;2023-05-09T04:00:40;8.87;;;7.97;;
3726;SDS011;1879;45.876;12.300;2023-05-09T04:03:08;8.93;;;8.00;;
3726;SDS011;1879;45.876;12.300;2023-05-09T04:05:35;9.23;;;7.80;;
3726;SDS011;1879;45.876;12.300;2023-05-09T04:08:02;10.10;;;7.93;;
3726;SDS011;1879;45.876;12.300;2023-05-09T04:10:30;8.87;;;7.97;;
3726;SDS011;1879;45.876;12.300;2023-05-09T04:12:57;9.03;;;8.20;;
3726;SDS011;1879;45.876;12.300;2023-05-09T04:15:24;9.20;;;8.23;;
3726;SDS011;1879;45.876;12.300;2023-05-09T04:17:51;9.10;;;8.20;;
3726;SDS011;1879;45.876;12.300;2023-05-09T04:20:19;9.37;;;8.47;;
3726;SDS011;1879;45.876;12.300;2023-05-09T04:22:46;10.70;;;9.00;;
3726;SDS011;1879;45.876;12.300;2023-05-09T04:25:13;9.70;;;8.20;;
3726;SDS011;1879;45.876;12.300;2023-05-09T04:27:40;10.30;;;9.30;;
3726;SDS011;1879;45.876;12.300;2023-05-09T04:30:08;9.73;;;8.87;;
3726;SDS011;1879;45.876;12.300;2023-05-09T04:32:36;8.47;;;7.73;;
3726;SDS011;1879;45.876;12.300;2023-05-09T04:35:04;9.53;;;8.60;;
3726;SDS011;1879;45.876;12.300;2023-05-09T04:37:33;8.87;;;8.07;;
3726;SDS011;1879;45.876;12.300;2023-05-09T04:40:00;9.83;;;8.93;;
3726;SDS011;1879;45.876;12.300;2023-05-09T04:42:30;7.87;;;7.07;;
3726;SDS011;1879;45.876;12.300;2023-05-09T04:44:57;9.20;;;8.40;;
3726;SDS011;1879;45.876;12.300;2023-05-09T04:47:25;11.30;;;8.70;;
3726;SDS011;1879;45.876;12.300;2023-05-09T04:49:52;8.83;;;7.63;;
3726;SDS011;1879;45.876;12.300;2023-05-09T04:52:19;8.30;;;7.40;;
3726;SDS011;1879;45.876;12.300;2023-05-09T04:54:47;10.27;;;8.30;;
3726;SDS011;1879;45.876;12.300;2023-05-09T04:57:15;9.23;;;8.43;;
3726;SDS011;1879;45.876;12.300;2023-05-09T04:59:41;9.80;;;8.50;;
3726;SDS011;1879;45.876;12.300;2023-05-09T05:02:08;9.83;;;7.50;;
3726;SDS011;1879;45.876;12.300;2023-05-09T05:04:35;9.73;;;8.70;;
3726;SDS011;1879;45.876;12.300;2023-05-09T05:07:02;9.10;;;8.20;;
3726;SDS011;1879;45.876;12.300;2023-05-09T05:09:29;8.40;;;7.60;;
3726;SDS011;1879;45.876;12.300;2023-05-09T05:11:58;10.70;;;8.50;;
3726;SDS011;1879;45.876;12.300;2023-05-09T05:14:24;12.83;;;8.80;;
3726;SDS011;1879;45.876;12.300;2023-05-09T05:16:51;9.30;;;8.43;;
3726;SDS011;1879;45.876;12.300;2023-05-09T05:19:18;8.60;;;7.80;;
3726;SDS011;1879;45.876;12.300;2023-05-09T05:21:45;9.03;;;8.13;;
3726;SDS011;1879;45.876;12.300;2023-05-09T05:24:12;9.00;;;8.20;;
3726;SDS011;1879;45.876;12.300;2023-05-09T05:26:39;9.13;;;8.20;;
3726;SDS011;1879;45.876;12.300;2023-05-09T05:29:08;9.30;;;8.40;;
3726;SDS011;1879;45.876;12.300;2023-05-09T05:31:35;8.10;;;7.40;;
3726;SDS011;1879;45.876;12.300;2023-05-09T05:34:02;7.63;;;6.93;;
3726;SDS011;1879;45.876;12.300;2023-05-09T05:36:29;7.80;;;6.60;;
3726;SDS011;1879;45.876;12.300;2023-05-09T05:38:56;8.07;;;7.03;;
3726;SDS011;1879;45.876;12.300;2023-05-09T05:41:23;8.30;;;7.50;;
3726;SDS011;1879;45.876;12.300;2023-05-09T05:43:51;9.17;;;7.30;;
3726;SDS011;1879;45.876;12.300;2023-05-09T05:46:19;7.07;;;6.37;;
3726;SDS011;1879;45.876;12.300;2023-05-09T05:48:46;8.53;;;7.73;;
3726;SDS011;1879;45.876;12.300;2023-05-09T05:51:13;8.53;;;7.70;;
3726;SDS011;1879;45.876;12.300;2023-05-09T05:53:40;8.10;;;7.30;;
3726;SDS011;1879;45.876;12.300;2023-05-09T05:56:07;7.77;;;7.07;;
3726;SDS011;1879;45.876;12.300;2023-05-09T05:58:34;8.40;;;7.57;;
3726;SDS011;1879;45.876;12.300;2023-05-09T06:01:01;12.33;;;7.90;;
3726;SDS011;1879;45.876;12.300;2023-05-09T06:03:29;9.70;;;7.03;;
3726;SDS011;1879;45.876;12.300;2023-05-09T06:05:56;9.30;;;6.53;;
3726;SDS011;1879;45.876;12.300;2023-05-09T06:08:23;9.23;;;6.80;;
3726;SDS011;1879;45.876;12.300;2023-05-09T06:10:50;8.80;;;7.33;;
3726;SDS011;1879;45.876;12.300;2023-05-09T06:13:17;8.37;;;7.57;;
3726;SDS011;1879;45.876;12.300;2023-05-09T06:15:44;8.30;;;7.60;;
3726;SDS011;1879;45.876;12.300;2023-05-09T06:18:11;8.40;;;7.57;;
3726;SDS011;1879;45.876;12.300;2023-05-09T06:20:39;11.53;;;7.10;;
3726;SDS011;1879;45.876;12.300;2023-05-09T06:23:06;8.77;;;7.90;;
3726;SDS011;1879;45.876;12.300;2023-05-09T06:25:33;8.77;;;7.90;;
3726;SDS011;1879;45.876;12.300;2023-05-09T06:28:00;8.60;;;7.80;;
3726;SDS011;1879;45.876;12.300;2023-05-09T06:30:27;7.90;;;7.13;;
3726;SDS011;1879;45.876;12.300;2023-05-09T06:32:54;8.23;;;7.43;;
3726;SDS011;1879;45.876;12.300;2023-05-09T06:35:22;8.13;;;6.87;;
3726;SDS011;1879;45.876;12.300;2023-05-09T06:37:50;8.30;;;7.07;;
3726;SDS011;1879;45.876;12.300;2023-05-09T06:40:17;7.70;;;6.83;;
3726;SDS011;1879;45.876;12.300;2023-05-09T06:42:44;7.90;;;7.30;;
3726;SDS011;1879;45.876;12.300;2023-05-09T06:45:11;7.13;;;6.40;;
3726;SDS011;1879;45.876;12.300;2023-05-09T06:47:38;7.73;;;7.03;;
3726;SDS011;1879;45.876;12.300;2023-05-09T06:50:06;8.10;;;7.30;;
3726;SDS011;1879;45.876;12.300;2023-05-09T06:52:33;7.27;;;6.67;;
3726;SDS011;1879;45.876;12.300;2023-05-09T06:55:02;8.43;;;6.93;;
3726;SDS011;1879;45.876;12.300;2023-05-09T06:57:29;8.73;;;7.83;;
3726;SDS011;1879;45.876;12.300;2023-05-09T06:59:56;8.63;;;6.50;;
3726;SDS011;1879;45.876;12.300;2023-05-09T07:02:23;8.13;;;7.30;;
3726;SDS011;1879;45.876;12.300;2023-05-09T07:04:50;8.27;;;6.97;;
3726;SDS011;1879;45.876;12.300;2023-05-09T07:07:17;7.97;;;7.10;;
3726;SDS011;1879;45.876;12.300;2023-05-09T07:09:44;8.17;;;7.37;;
3726;SDS011;1879;45.876;12.300;2023-05-09T07:12:15;7.90;;;7.13;;
3726;SDS011;1879;45.876;12.300;2023-05-09T07:14:42;8.30;;;7.50;;
3726;SDS011;1879;45.876;12.300;2023-05-09T07:17:09;9.27;;;8.13;;
3726;SDS011;1879;45.876;12.300;2023-05-09T07:19:36;8.60;;;7.70;;
3726;SDS011;1879;45.876;12.300;2023-05-09T07:22:03;7.67;;;6.90;;
3726;SDS011;1879;45.876;12.300;2023-05-09T07:24:30;8.77;;;7.03;;
3726;SDS011;1879;45.876;12.300;2023-05-09T07:26:57;7.90;;;7.20;;
3726;SDS011;1879;45.876;12.300;2023-05-09T07:29:25;7.90;;;7.10;;
3726;SDS011;1879;45.876;12.300;2023-05-09T07:31:52;8.07;;;7.27;;
3726;SDS011;1879;45.876;12.300;2023-05-09T07:34:19;6.73;;;6.13;;
3726;SDS011;1879;45.876;12.300;2023-05-09T07:36:47;7.87;;;7.10;;
3726;SDS011;1879;45.876;12.300;2023-05-09T07:39:14;8.00;;;7.30;;
3726;SDS011;1879;45.876;12.300;2023-05-09T07:41:41;7.90;;;7.20;;
3726;SDS011;1879;45.876;12.300;2023-05-09T07:44:08;7.10;;;6.50;;
3726;SDS011;1879;45.876;12.300;2023-05-09T07:46:36;7.43;;;6.43;;
3726;SDS011;1879;45.876;12.300;2023-05-09T07:49:06;8.33;;;7.53;;
3726;SDS011;1879;45.876;12.300;2023-05-09T07:51:33;7.10;;;6.60;;
3726;SDS011;1879;45.876;12.300;2023-05-09T07:54:00;7.33;;;6.63;;
3726;SDS011;1879;45.876;12.300;2023-05-09T07:56:26;7.10;;;6.50;;
3726;SDS011;1879;45.876;12.300;2023-05-09T07:58:53;6.83;;;6.23;;
3726;SDS011;1879;45.876;12.300;2023-05-09T08:01:20;7.43;;;6.33;;
3726;SDS011;1879;45.876;12.300;2023-05-09T08:03:49;6.50;;;5.90;;
3726;SDS011;1879;45.876;12.300;2023-05-09T08:06:16;7.40;;;6.60;;
3726;SDS011;1879;45.876;12.300;2023-05-09T08:08:43;7.83;;;7.03;;
3726;SDS011;1879;45.876;12.300;2023-05-09T08:11:09;7.80;;;7.10;;
3726;SDS011;1879;45.876;12.300;2023-05-09T08:13:37;7.53;;;6.77;;
3726;SDS011;1879;45.876;12.300;2023-05-09T08:16:07;7.33;;;6.53;;
3726;SDS011;1879;45.876;12.300;2023-05-09T08:18:34;9.33;;;6.37;;
3726;SDS011;1879;45.876;12.300;2023-05-09T08:23:44;10.77;;;6.67;;
3726;SDS011;1879;45.876;12.300;2023-05-09T08:28:59;9.40;;;5.90;;
3726;SDS011;1879;45.876;12.300;2023-05-09T08:31:28;7.07;;;6.47;;
3726;SDS011;1879;45.876;12.300;2023-05-09T08:33:55;6.73;;;5.87;;
3726;SDS011;1879;45.876;12.300;2023-05-09T08:36:24;7.33;;;6.63;;
3726;SDS011;1879;45.876;12.300;2023-05-09T08:38:51;8.30;;;6.70;;
3726;SDS011;1879;45.876;12.300;2023-05-09T08:41:18;7.33;;;6.60;;
3726;SDS011;1879;45.876;12.300;2023-05-09T08:43:53;8.23;;;6.47;;
3726;SDS011;1879;45.876;12.300;2023-05-09T08:46:31;10.60;;;7.57;;
3726;SDS011;1879;45.876;12.300;2023-05-09T08:49:03;7.50;;;6.90;;
3726;SDS011;1879;45.876;12.300;2023-05-09T08:51:32;8.60;;;7.33;;
3726;SDS011;1879;45.876;12.300;2023-05-09T08:54:00;8.83;;;7.17;;
3726;SDS011;1879;45.876;12.300;2023-05-09T08:56:27;7.00;;;6.40;;
3726;SDS011;1879;45.876;12.300;2023-05-09T08:58:55;7.87;;;7.10;;
3726;SDS011;1879;45.876;12.300;2023-05-09T09:01:22;7.40;;;6.70;;
3726;SDS011;1879;45.876;12.300;2023-05-09T09:03:50;8.87;;;7.13;;
3726;SDS011;1879;45.876;12.300;2023-05-09T09:06:18;7.47;;;6.77;;
3726;SDS011;1879;45.876;12.300;2023-05-09T09:08:48;8.33;;;7.63;;
3726;SDS011;1879;45.876;12.300;2023-05-09T09:11:16;7.33;;;6.40;;
3726;SDS011;1879;45.876;12.300;2023-05-09T09:13:43;8.57;;;5.53;;
3726;SDS011;1879;45.876;12.300;2023-05-09T09:16:13;6.37;;;5.77;;
3726;SDS011;1879;45.876;12.300;2023-05-09T09:18:45;7.23;;;5.73;;
3726;SDS011;1879;45.876;12.300;2023-05-09T09:21:13;6.93;;;4.93;;
3726;SDS011;1879;45.876;12.300;2023-05-09T09:23:42;7.53;;;6.83;;
3726;SDS011;1879;45.876;12.300;2023-05-09T09:26:13;8.33;;;5.77;;
3726;SDS011;1879;45.876;12.300;2023-05-09T09:28:40;11.50;;;6.70;;
3726;SDS011;1879;45.876;12.300;2023-05-09T09:31:20;7.70;;;7.00;;
3726;SDS011;1879;45.876;12.300;2023-05-09T09:33:47;5.70;;;5.20;;
3726;SDS011;1879;45.876;12.300;2023-05-09T09:36:15;8.87;;;6.37;;
3726;SDS011;1879;45.876;12.300;2023-05-09T09:38:54;5.60;;;5.10;;
3726;SDS011;1879;45.876;12.300;2023-05-09T09:41:29;6.10;;;5.50;;
3726;SDS011;1879;45.876;12.300;2023-05-09T09:43:57;7.00;;;5.83;;
3726;SDS011;1879;45.876;12.300;2023-05-09T09:46:39;6.47;;;5.97;;
3726;SDS011;1879;45.876;12.300;2023-05-09T09:49:08;6.43;;;5.83;;
3726;SDS011;1879;45.876;12.300;2023-05-09T09:51:35;8.90;;;6.60;;
3726;SDS011;1879;45.876;12.300;2023-05-09T09:54:02;6.80;;;5.93;;
3726;SDS011;1879;45.876;12.300;2023-05-09T09:56:39;7.27;;;6.57;;
3726;SDS011;1879;45.876;12.300;2023-05-09T09:59:08;6.50;;;5.90;;
3726;SDS011;1879;45.876;12.300;2023-05-09T10:01:54;7.20;;;6.10;;
3726;SDS011;1879;45.876;12.300;2023-05-09T10:04:28;6.80;;;6.20;;
3726;SDS011;1879;45.876;12.300;2023-05-09T10:06:57;6.87;;;6.27;;
3726;SDS011;1879;45.876;12.300;2023-05-09T10:09:25;6.17;;;5.67;;
3726;SDS011;1879;45.876;12.300;2023-05-09T10:11:54;6.90;;;5.83;;
3726;SDS011;1879;45.876;12.300;2023-05-09T10:14:22;6.03;;;5.43;;
3726;SDS011;1879;45.876;12.300;2023-05-09T10:16:53;6.90;;;6.30;;
3726;SDS011;1879;45.876;12.300;2023-05-09T10:19:22;6.43;;;5.87;;
3726;SDS011;1879;45.876;12.300;2023-05-09T10:22:00;6.90;;;6.20;;
3726;SDS011;1879;45.876;12.300;2023-05-09T10:24:34;6.90;;;6.30;;
3726;SDS011;1879;45.876;12.300;2023-05-09T10:27:08;6.73;;;6.03;;
3726;SDS011;1879;45.876;12.300;2023-05-09T10:29:37;7.00;;;6.40;;
3726;SDS011;1879;45.876;12.300;2023-05-09T10:32:10;6.80;;;6.07;;
3726;SDS011;1879;45.876;12.300;2023-05-09T10:34:48;7.77;;;7.10;;
3726;SDS011;1879;45.876;12.300;2023-05-09T10:37:19;8.03;;;7.13;;
3726;SDS011;1879;45.876;12.300;2023-05-09T10:39:50;7.50;;;6.90;;
3726;SDS011;1879;45.876;12.300;2023-05-09T10:42:19;8.87;;;6.17;;
3726;SDS011;1879;45.876;12.300;2023-05-09T10:44:48;7.87;;;7.17;;
3726;SDS011;1879;45.876;12.300;2023-05-09T10:47:15;7.30;;;6.60;;
3726;SDS011;1879;45.876;12.300;2023-05-09T10:49:43;14.90;;;6.90;;
3726;SDS011;1879;45.876;12.300;2023-05-09T10:52:21;7.70;;;6.33;;
3726;SDS011;1879;45.876;12.300;2023-05-09T10:54:56;6.60;;;6.10;;
3726;SDS011;1879;45.876;12.300;2023-05-09T10:57:26;7.73;;;7.10;;
3726;SDS011;1879;45.876;12.300;2023-05-09T10:59:54;7.90;;;6.87;;
3726;SDS011;1879;45.876;12.300;2023-05-09T11:02:21;7.60;;;6.90;;
3726;SDS011;1879;45.876;12.300;2023-05-09T11:07:47;8.60;;;7.80;;
3726;SDS011;1879;45.876;12.300;2023-05-09T11:11:00;11.30;;;8.30;;
3726;SDS011;1879;45.876;12.300;2023-05-09T11:13:35;7.33;;;6.63;;
3726;SDS011;1879;45.876;12.300;2023-05-09T11:16:03;8.80;;;7.90;;
3726;SDS011;1879;45.876;12.300;2023-05-09T11:18:35;8.77;;;7.97;;
3726;SDS011;1879;45.876;12.300;2023-05-09T11:21:16;8.33;;;7.43;;
3726;SDS011;1879;45.876;12.300;2023-05-09T11:23:44;7.60;;;6.90;;
3726;SDS011;1879;45.876;12.300;2023-05-09T11:26:13;9.10;;;8.30;;
3726;SDS011;1879;45.876;12.300;2023-05-09T11:28:52;9.00;;;8.20;;
3726;SDS011;1879;45.876;12.300;2023-05-09T11:31:20;8.17;;;7.40;;
3726;SDS011;1879;45.876;12.300;2023-05-09T11:33:48;8.00;;;7.20;;
3726;SDS011;1879;45.876;12.300;2023-05-09T11:36:26;8.37;;;7.67;;
3726;SDS011;1879;45.876;12.300;2023-05-09T11:39:01;7.73;;;7.10;;
3726;SDS011;1879;45.876;12.300;2023-05-09T11:41:36;8.00;;;7.30;;
3726;SDS011;1879;45.876;12.300;2023-05-09T11:44:13;8.00;;;7.30;;
3726;SDS011;1879;45.876;12.300;2023-05-09T11:46:41;8.43;;;7.73;;
3726;SDS011;1879;45.876;12.300;2023-05-09T11:49:08;6.37;;;5.87;;
3726;SDS011;1879;45.876;12.300;2023-05-09T11:51:36;6.57;;;6.00;;
3726;SDS011;1879;45.876;12.300;2023-05-09T11:54:03;7.20;;;6.60;;
3726;SDS011;1879;45.876;12.300;2023-05-09T11:56:31;6.17;;;5.57;;
3726;SDS011;1879;45.876;12.300;2023-05-09T11:58:59;7.50;;;6.90;;
3726;SDS011;1879;45.876;12.300;2023-05-09T12:01:30;6.07;;;5.57;;
3726;SDS011;1879;45.876;12.300;2023-05-09T12:03:58;7.07;;;6.37;;
3726;SDS011;1879;45.876;12.300;2023-05-09T12:06:25;5.67;;;5.27;;
3726;SDS011;1879;45.876;12.300;2023-05-09T12:08:53;6.20;;;5.60;;
3726;SDS011;1879;45.876;12.300;2023-05-09T12:11:20;6.43;;;5.60;;
3726;SDS011;1879;45.876;12.300;2023-05-09T12:13:49;5.90;;;5.30;;
3726;SDS011;1879;45.876;12.300;2023-05-09T12:16:19;5.90;;;5.30;;
3726;SDS011;1879;45.876;12.300;2023-05-09T12:18:49;5.30;;;4.90;;
3726;SDS011;1879;45.876;12.300;2023-05-09T12:21:18;5.43;;;4.93;;
3726;SDS011;1879;45.876;12.300;2023-05-09T12:23:48;5.43;;;4.93;;
3726;SDS011;1879;45.876;12.300;2023-05-09T12:26:15;4.97;;;4.57;;
3726;SDS011;1879;45.876;12.300;2023-05-09T12:28:42;4.97;;;4.57;;
3726;SDS011;1879;45.876;12.300;2023-05-09T12:31:09;5.40;;;4.90;;
3726;SDS011;1879;45.876;12.300;2023-05-09T12:33:37;6.17;;;5.53;;
3726;SDS011;1879;45.876;12.300;2023-05-09T12:36:06;6.77;;;6.17;;
3726;SDS011;1879;45.876;12.300;2023-05-09T12:38:35;6.13;;;5.53;;
3726;SDS011;1879;45.876;12.300;2023-05-09T12:41:02;5.63;;;4.90;;
3726;SDS011;1879;45.876;12.300;2023-05-09T12:43:31;6.70;;;6.10;;
3726;SDS011;1879;45.876;12.300;2023-05-09T12:45:59;6.03;;;5.03;;
3726;SDS011;1879;45.876;12.300;2023-05-09T12:48:28;5.53;;;5.03;;
3726;SDS011;1879;45.876;12.300;2023-05-09T12:51:00;5.63;;;5.13;;
3726;SDS011;1879;45.876;12.300;2023-05-09T12:53:29;5.67;;;5.20;;
3726;SDS011;1879;45.876;12.300;2023-05-09T12:55:59;6.73;;;6.13;;
3726;SDS011;1879;45.876;12.300;2023-05-09T12:58:28;6.50;;;6.00;;
3726;SDS011;1879;45.876;12.300;2023-05-09T13:00:56;8.13;;;5.80;;
3726;SDS011;1879;45.876;12.300;2023-05-09T13:03:24;6.80;;;6.20;;
3726;SDS011;1879;45.876;12.300;2023-05-09T13:05:53;6.60;;;6.00;;
3726;SDS011;1879;45.876;12.300;2023-05-09T13:08:21;6.57;;;5.97;;
3726;SDS011;1879;45.876;12.300;2023-05-09T13:10:50;6.27;;;5.23;;
3726;SDS011;1879;45.876;12.300;2023-05-09T13:13:17;6.07;;;5.57;;
3726;SDS011;1879;45.876;12.300;2023-05-09T13:15:44;6.07;;;5.47;;
3726;SDS011;1879;45.876;12.300;2023-05-09T13:18:11;6.23;;;5.67;;
3726;SDS011;1879;45.876;12.300;2023-05-09T13:20:38;6.90;;;6.30;;
3726;SDS011;1879;45.876;12.300;2023-05-09T13:23:05;5.93;;;5.43;;
3726;SDS011;1879;45.876;12.300;2023-05-09T13:25:32;6.70;;;6.10;;
3726;SDS011;1879;45.876;12.300;2023-05-09T13:28:01;6.80;;;6.20;;
3726;SDS011;1879;45.876;12.300;2023-05-09T13:30:28;6.00;;;5.50;;
3726;SDS011;1879;45.876;12.300;2023-05-09T13:32:55;5.97;;;5.40;;
3726;SDS011;1879;45.876;12.300;2023-05-09T13:35:21;6.20;;;5.70;;
3726;SDS011;1879;45.876;12.300;2023-05-09T13:37:49;6.07;;;5.53;;
3726;SDS011;1879;45.876;12.300;2023-05-09T13:40:16;7.43;;;6.10;;
3726;SDS011;1879;45.876;12.300;2023-05-09T13:42:46;7.63;;;5.30;;
3726;SDS011;1879;45.876;12.300;2023-05-09T13:45:15;5.93;;;5.43;;
3726;SDS011;1879;45.876;12.300;2023-05-09T13:47:42;5.70;;;5.20;;
3726;SDS011;1879;45.876;12.300;2023-05-09T13:50:09;6.70;;;5.57;;
3726;SDS011;1879;45.876;12.300;2023-05-09T13:52:37;5.90;;;5.30;;
3726;SDS011;1879;45.876;12.300;2023-05-09T13:55:04;6.03;;;5.50;;
3726;SDS011;1879;45.876;12.300;2023-05-09T13:57:31;5.73;;;5.23;;
3726;SDS011;1879;45.876;12.300;2023-05-09T14:02:44;6.27;;;5.70;;
3726;SDS011;1879;45.876;12.300;2023-05-09T14:05:11;5.93;;;5.43;;
3726;SDS011;1879;45.876;12.300;2023-05-09T14:07:38;6.27;;;5.57;;
3726;SDS011;1879;45.876;12.300;2023-05-09T14:10:05;6.00;;;5.40;;
3726;SDS011;1879;45.876;12.300;2023-05-09T14:12:33;7.93;;;5.83;;
3726;SDS011;1879;45.876;12.300;2023-05-09T14:15:00;5.87;;;5.30;;
3726;SDS011;1879;45.876;12.300;2023-05-09T14:17:28;6.10;;;5.53;;
3726;SDS011;1879;45.876;12.300;2023-05-09T14:19:57;6.70;;;5.30;;
3726;SDS011;1879;45.876;12.300;2023-05-09T14:22:24;6.33;;;5.83;;
3726;SDS011;1879;45.876;12.300;2023-05-09T14:24:51;5.90;;;5.33;;
3726;SDS011;1879;45.876;12.300;2023-05-09T14:27:18;6.27;;;5.67;;
3726;SDS011;1879;45.876;12.300;2023-05-09T14:29:45;5.77;;;5.27;;
3726;SDS011;1879;45.876;12.300;2023-05-09T14:32:13;6.27;;;5.70;;
3726;SDS011;1879;45.876;12.300;2023-05-09T14:34:40;5.97;;;5.47;;
3726;SDS011;1879;45.876;12.300;2023-05-09T14:37:08;5.40;;;4.90;;
3726;SDS011;1879;45.876;12.300;2023-05-09T14:39:38;6.40;;;5.80;;
3726;SDS011;1879;45.876;12.300;2023-05-09T14:42:06;6.50;;;5.13;;
3726;SDS011;1879;45.876;12.300;2023-05-09T14:44:34;6.63;;;5.93;;
3726;SDS011;1879;45.876;12.300;2023-05-09T14:47:01;4.90;;;4.50;;
3726;SDS011;1879;45.876;12.300;2023-05-09T14:49:29;6.00;;;5.40;;
3726;SDS011;1879;45.876;12.300;2023-05-09T14:51:56;5.40;;;5.00;;
3726;SDS011;1879;45.876;12.300;2023-05-09T14:54:24;5.47;;;5.07;;
3726;SDS011;1879;45.876;12.300;2023-05-09T14:56:51;4.87;;;4.47;;
3726;SDS011;1879;45.876;12.300;2023-05-09T14:59:18;5.90;;;5.40;;
3726;SDS011;1879;45.876;12.300;2023-05-09T15:01:45;5.60;;;5.10;;
3726;SDS011;1879;45.876;12.300;2023-05-09T15:04:12;5.50;;;5.00;;
3726;SDS011;1879;45.876;12.300;2023-05-09T15:06:39;5.83;;;5.37;;
3726;SDS011;1879;45.876;12.300;2023-05-09T15:09:07;5.77;;;5.27;;
3726;SDS011;1879;45.876;12.300;2023-05-09T15:11:35;6.03;;;5.53;;
3726;SDS011;1879;45.876;12.300;2023-05-09T15:14:02;5.60;;;5.10;;
3726;SDS011;1879;45.876;12.300;2023-05-09T15:16:29;6.10;;;5.50;;
3726;SDS011;1879;45.876;12.300;2023-05-09T15:18:56;6.60;;;5.07;;